Time;durP1;ratioP1;P1;durP2;ratioP2;P2;SDS_P1;SDS_P2;PMS_P1;PMS_P2;Temp;Humidity;BMP_temperature;BMP_pressure;BME280_temperature;BME280_humidity;BME280_pressure;Samples;Min_cycle;Max_cycle;Signal;HPM_P1;HPM_P2
2021/07/03 00:01:47;;;;;;;;;;;21.30;75.30;;;;;;5016680;28;1394;-72
2021/07/03 00:04:13;;;;;;;;;;;21.30;75.30;;;;;;5015831;28;1691;-72
2021/07/03 00:06:38;;;;;;;;;;;21.30;75.30;;;;;;5016577;28;1385;-73
2021/07/03 00:09:04;;;;;;;;;;;21.40;75.40;;;;;;5029955;28;1440;-73
2021/07/03 00:11:29;;;;;;;;;;;21.30;75.20;;;;;;5016453;28;1954;-73
2021/07/03 00:13:55;;;;;;;;;;;21.30;75.30;;;;;;5029936;28;1363;-73
2021/07/03 00:16:20;;;;;;;;;;;21.30;75.30;;;;;;5016336;28;1419;-73
2021/07/03 00:18:46;;;;;;;;;;;21.30;75.30;;;;;;5029893;28;1404;-71
2021/07/03 00:21:11;;;;;;;;;;;21.30;75.30;;;;;;5028347;28;1675;-71
2021/07/03 00:23:36;;;;;;;;;;;21.30;75.30;;;;;;5035704;28;1697;-71
2021/07/03 00:26:02;;;;;;;;;;;21.30;75.30;;;;;;5035871;28;1411;-71
2021/07/03 00:28:27;;;;;;;;;;;21.30;75.30;;;;;;5017712;28;1470;-71
2021/07/03 00:30:53;;;;;;;;;;;21.30;75.30;;;;;;5016057;28;1906;-71
2021/07/03 00:33:18;;;;;;;;;;;21.30;75.30;;;;;;4998065;28;1207;-71
2021/07/03 00:35:44;;;;;;;;;;;21.30;75.30;;;;;;5009229;28;1199;-72
2021/07/03 00:38:10;;;;;;;;;;;21.30;75.30;;;;;;5022437;28;1450;-71
2021/07/03 00:40:35;;;;;;;;;;;21.30;75.30;;;;;;5024837;28;1201;-72
2021/07/03 00:43:01;;;;;;;;;;;21.30;76.00;;;;;;4998143;28;1455;-72
2021/07/03 00:45:26;;;;;;;;;;;21.40;75.30;;;;;;5015979;28;1610;-71
2021/07/03 00:47:51;;;;;;;;;;;21.30;75.30;;;;;;5015715;28;1423;-71
2021/07/03 00:50:17;;;;;;;;;;;21.30;75.30;;;;;;4988581;28;1894;-72
2021/07/03 00:52:43;;;;;;;;;;;21.30;75.30;;;;;;5011361;28;1647;-72
2021/07/03 00:55:08;;;;;;;;;;;21.30;75.30;;;;;;5015342;28;1360;-71
2021/07/03 00:57:34;;;;;;;;;;;21.30;75.20;;;;;;5015626;28;1507;-72
2021/07/03 01:00:02;;;;;;;;;;;21.30;75.20;;;;;;5015589;28;1661;-71
2021/07/03 01:02:28;;;;;;;;;;;21.30;75.20;;;;;;5015615;28;1671;-71
2021/07/03 01:04:53;;;;;;;;;;;21.30;75.20;;;;;;5014819;28;1450;-72
2021/07/03 01:07:18;;;;;;;;;;;21.30;75.20;;;;;;4997993;28;1534;-71
2021/07/03 01:09:44;;;;;;;;;;;21.30;75.20;;;;;;5015305;28;1906;-71
2021/07/03 01:12:09;;;;;;;;;;;21.30;75.20;;;;;;5019979;28;1531;-72
2021/07/03 01:14:44;;;;;;;;;;;21.30;75.20;;;;;;5017099;28;1357;-71
2021/07/03 01:17:10;;;;;;;;;;;21.30;75.20;;;;;;5034947;28;1444;-71
2021/07/03 01:19:36;;;;;;;;;;;21.30;75.20;;;;;;5034876;28;1667;-72
2021/07/03 01:22:01;;;;;;;;;;;21.30;75.20;;;;;;5021928;28;1268;-72
2021/07/03 01:24:26;;;;;;;;;;;21.30;75.20;;;;;;5004378;28;1371;-72
2021/07/03 01:26:53;;;;;;;;;;;21.30;75.20;;;;;;5015133;28;1579;-72
2021/07/03 01:29:19;;;;;;;;;;;21.30;75.10;;;;;;4997506;28;1608;-72
2021/07/03 01:31:44;;;;;;;;;;;21.30;75.10;;;;;;4997435;28;1894;-72
2021/07/03 01:34:10;;;;;;;;;;;21.30;75.40;;;;;;5009333;28;1439;-72
2021/07/03 01:36:36;;;;;;;;;;;21.30;75.20;;;;;;5021395;28;1415;-72
2021/07/03 01:39:01;;;;;;;;;;;21.30;75.20;;;;;;5006294;28;1555;-72
2021/07/03 01:41:27;;;;;;;;;;;21.30;75.10;;;;;;5034686;28;1257;-72
2021/07/03 01:43:52;;;;;;;;;;;21.30;75.20;;;;;;5021779;28;1195;-72
2021/07/03 01:46:18;;;;;;;;;;;21.30;75.10;;;;;;5014511;28;1200;-71
2021/07/03 01:48:43;;;;;;;;;;;21.30;75.10;;;;;;5014552;28;1361;-71
2021/07/03 01:51:08;;;;;;;;;;;21.30;75.10;;;;;;5014578;28;1945;-72
2021/07/03 01:53:34;;;;;;;;;;;21.30;75.10;;;;;;5014247;28;1137;-72
2021/07/03 01:55:59;;;;;;;;;;;21.30;75.10;;;;;;4996949;28;1648;-72
2021/07/03 01:58:25;;;;;;;;;;;21.30;75.10;;;;;;5014064;28;1399;-72
2021/07/03 02:00:51;;;;;;;;;;;21.30;75.10;;;;;;4996958;28;1650;-72
2021/07/03 02:03:17;;;;;;;;;;;21.30;75.10;;;;;;5014388;28;1587;-72
2021/07/03 02:05:42;;;;;;;;;;;21.30;75.10;;;;;;5014177;28;1443;-72
2021/07/03 02:08:08;;;;;;;;;;;21.30;75.10;;;;;;5008765;28;1180;-72
2021/07/03 02:10:33;;;;;;;;;;;21.30;75.10;;;;;;5020231;28;1909;-72
2021/07/03 02:12:59;;;;;;;;;;;21.30;75.10;;;;;;5016244;28;966;-72
2021/07/03 02:15:24;;;;;;;;;;;21.30;75.10;;;;;;5015637;28;1429;-72
2021/07/03 02:17:50;;;;;;;;;;;21.30;75.20;;;;;;5014140;28;1404;-72
2021/07/03 02:20:15;;;;;;;;;;;21.30;75.20;;;;;;4994560;28;1705;-72
2021/07/03 02:22:41;;;;;;;;;;;21.30;75.10;;;;;;4996539;28;1658;-72
2021/07/03 02:25:06;;;;;;;;;;;21.30;75.30;;;;;;5023897;28;1339;-71
2021/07/03 02:27:32;;;;;;;;;;;21.30;75.10;;;;;;5026298;28;1586;-71
2021/07/03 02:29:59;;;;;;;;;;;21.30;75.10;;;;;;5024221;28;1937;-72
2021/07/03 02:32:25;;;;;;;;;;;21.30;75.20;;;;;;5016451;28;1362;-72
2021/07/03 02:34:50;;;;;;;;;;;21.30;75.10;;;;;;5033242;28;1815;-72
2021/07/03 02:37:16;;;;;;;;;;;21.30;75.10;;;;;;5022602;28;747;-73
2021/07/03 02:39:41;;;;;;;;;;;21.30;75.10;;;;;;5013768;28;1415;-73
2021/07/03 02:42:06;;;;;;;;;;;21.30;75.10;;;;;;5013717;28;1386;-73
2021/07/03 02:44:32;;;;;;;;;;;21.30;75.10;;;;;;5017524;28;1387;-73
2021/07/03 02:46:57;;;;;;;;;;;21.30;75.10;;;;;;5022584;28;1218;-72
2021/07/03 02:49:23;;;;;;;;;;;21.30;75.10;;;;;;5017830;28;1036;-72
2021/07/03 02:51:48;;;;;;;;;;;21.30;75.10;;;;;;5022634;28;1902;-72
2021/07/03 02:54:14;;;;;;;;;;;21.30;75.10;;;;;;5030497;28;1347;-70
2021/07/03 02:56:39;;;;;;;;;;;21.30;75.10;;;;;;5022591;28;1183;-72
2021/07/03 02:59:04;;;;;;;;;;;21.30;75.10;;;;;;5013280;28;1220;-72
2021/07/03 03:01:30;;;;;;;;;;;21.30;75.10;;;;;;5013287;28;1179;-72
2021/07/03 03:03:55;;;;;;;;;;;21.30;75.10;;;;;;5012854;28;1396;-72
2021/07/03 03:06:21;;;;;;;;;;;21.30;75.10;;;;;;5013121;28;1296;-73
2021/07/03 03:08:46;;;;;;;;;;;21.30;75.10;;;;;;5016810;28;1299;-73
2021/07/03 03:11:12;;;;;;;;;;;21.30;75.10;;;;;;5021891;28;1910;-72
2021/07/03 03:13:37;;;;;;;;;;;21.30;75.00;;;;;;4995339;28;1513;-72
2021/07/03 03:16:03;;;;;;;;;;;21.30;75.10;;;;;;4995366;28;1235;-73
2021/07/03 03:18:28;;;;;;;;;;;21.30;75.00;;;;;;5012998;28;1081;-73
2021/07/03 03:20:54;;;;;;;;;;;21.40;75.10;;;;;;4995640;28;1069;-72
2021/07/03 03:23:19;;;;;;;;;;;21.30;75.80;;;;;;5012628;28;1127;-72
2021/07/03 03:25:45;;;;;;;;;;;21.30;75.00;;;;;;4995389;28;1237;-72
2021/07/03 03:28:10;;;;;;;;;;;21.30;75.00;;;;;;5016903;28;1112;-72
2021/07/03 03:30:35;;;;;;;;;;;21.30;75.10;;;;;;5012650;28;2065;-73
2021/07/03 03:33:01;;;;;;;;;;;21.30;75.00;;;;;;5012795;28;1168;-72
2021/07/03 03:35:26;;;;;;;;;;;21.30;75.00;;;;;;5012828;28;1258;-72
2021/07/03 03:37:52;;;;;;;;;;;21.30;75.00;;;;;;5012971;28;1132;-73
2021/07/03 03:40:17;;;;;;;;;;;21.30;75.00;;;;;;5015786;28;1193;-72
2021/07/03 03:42:43;;;;;;;;;;;21.30;75.00;;;;;;5012964;28;1151;-73
2021/07/03 03:45:08;;;;;;;;;;;21.30;75.00;;;;;;4994856;28;1224;-72
2021/07/03 03:47:34;;;;;;;;;;;21.30;75.00;;;;;;5012718;28;1160;-72
2021/07/03 03:49:59;;;;;;;;;;;21.30;75.00;;;;;;5012679;28;1902;-72
2021/07/03 03:52:24;;;;;;;;;;;21.30;75.00;;;;;;5012754;28;1057;-72
2021/07/03 03:54:50;;;;;;;;;;;21.30;75.00;;;;;;5012512;28;1378;-73
2021/07/03 03:57:22;;;;;;;;;;;21.30;75.00;;;;;;5012779;28;1116;-73
2021/07/03 03:59:49;;;;;;;;;;;21.30;75.00;;;;;;4995197;28;1310;-72
2021/07/03 04:02:14;;;;;;;;;;;21.30;75.00;;;;;;5012675;28;1116;-73
2021/07/03 04:04:40;;;;;;;;;;;21.30;75.00;;;;;;5012231;28;1212;-72
2021/07/03 04:07:05;;;;;;;;;;;21.30;75.00;;;;;;5012782;28;1069;-73
2021/07/03 04:09:30;;;;;;;;;;;21.30;75.00;;;;;;5012492;28;1906;-73
2021/07/03 04:11:56;;;;;;;;;;;21.30;75.00;;;;;;5015417;28;1215;-73
2021/07/03 04:14:22;;;;;;;;;;;21.30;75.00;;;;;;5022475;28;1267;-73
2021/07/03 04:16:47;;;;;;;;;;;21.30;75.00;;;;;;5024722;28;1192;-72
2021/07/03 04:19:13;;;;;;;;;;;21.30;75.00;;;;;;5012517;28;1197;-72
2021/07/03 04:21:38;;;;;;;;;;;21.30;75.00;;;;;;5012854;28;1108;-72
2021/07/03 04:24:04;;;;;;;;;;;21.30;74.90;;;;;;4998332;28;1371;-73
2021/07/03 04:26:29;;;;;;;;;;;21.30;74.90;;;;;;5020027;28;1112;-72
2021/07/03 04:28:54;;;;;;;;;;;21.30;74.90;;;;;;5015773;28;1256;-73
2021/07/03 04:31:20;;;;;;;;;;;21.30;74.90;;;;;;5015941;28;1914;-73
2021/07/03 04:33:45;;;;;;;;;;;21.30;74.90;;;;;;4998133;28;1057;-73
2021/07/03 04:36:11;;;;;;;;;;;21.30;74.90;;;;;;4998191;28;1188;-72
2021/07/03 04:38:36;;;;;;;;;;;21.30;74.90;;;;;;5015781;28;1088;-72
2021/07/03 04:41:02;;;;;;;;;;;21.30;74.90;;;;;;5018203;28;1073;-72
2021/07/03 04:43:27;;;;;;;;;;;21.30;74.90;;;;;;5015255;28;1089;-73
2021/07/03 04:45:52;;;;;;;;;;;21.30;74.90;;;;;;5015641;28;1320;-73
2021/07/03 04:48:18;;;;;;;;;;;21.30;74.90;;;;;;5016100;28;1048;-72
2021/07/03 04:50:43;;;;;;;;;;;21.30;74.90;;;;;;5015502;28;1886;-73
2021/07/03 04:53:09;;;;;;;;;;;21.30;74.90;;;;;;5015640;28;1077;-72
2021/07/03 04:55:34;;;;;;;;;;;21.30;74.90;;;;;;4998035;28;1374;-72
2021/07/03 04:58:00;;;;;;;;;;;21.30;75.00;;;;;;5015355;28;1104;-72
2021/07/03 05:00:25;;;;;;;;;;;21.30;75.00;;;;;;5015427;28;1045;-72
2021/07/03 05:02:50;;;;;;;;;;;21.30;75.00;;;;;;5015223;28;1191;-72
2021/07/03 05:05:16;;;;;;;;;;;21.30;74.90;;;;;;5014998;28;1336;-72
2021/07/03 05:07:42;;;;;;;;;;;21.30;74.90;;;;;;5015357;28;1076;-72
2021/07/03 05:10:08;;;;;;;;;;;21.30;74.90;;;;;;5015156;28;1910;-72
2021/07/03 05:12:33;;;;;;;;;;;21.30;74.90;;;;;;5023086;28;1267;-73
2021/07/03 05:14:59;;;;;;;;;;;21.30;74.90;;;;;;5034806;28;1306;-72
2021/07/03 05:17:24;;;;;;;;;;;21.30;74.90;;;;;;5035117;28;1099;-72
2021/07/03 05:19:50;;;;;;;;;;;21.30;74.90;;;;;;5034846;28;1191;-72
2021/07/03 05:22:15;;;;;;;;;;;21.30;74.90;;;;;;5034848;28;1068;-72
2021/07/03 05:24:40;;;;;;;;;;;21.30;74.90;;;;;;5034384;28;1263;-72
2021/07/03 05:27:06;;;;;;;;;;;21.30;74.70;;;;;;5026885;28;1186;-72
2021/07/03 05:29:31;;;;;;;;;;;21.30;74.90;;;;;;5014876;28;1195;-72
2021/07/03 05:31:57;;;;;;;;;;;21.30;75.10;;;;;;5014857;28;1057;-72
2021/07/03 05:34:22;;;;;;;;;;;21.30;75.00;;;;;;5014204;28;1805;-69
2021/07/03 05:36:49;;;;;;;;;;;21.30;75.00;;;;;;5032791;28;1843;-69
2021/07/03 05:39:14;;;;;;;;;;;21.30;75.00;;;;;;5032936;28;1037;-69
2021/07/03 05:41:39;;;;;;;;;;;21.30;75.00;;;;;;5023482;28;1255;-69
2021/07/03 05:44:05;;;;;;;;;;;21.30;75.00;;;;;;5014494;28;1391;-69
2021/07/03 05:46:30;;;;;;;;;;;21.30;75.10;;;;;;4997191;28;1073;-72
2021/07/03 05:48:56;;;;;;;;;;;21.30;75.10;;;;;;5014539;28;1139;-71
2021/07/03 05:51:24;;;;;;;;;;;21.30;75.00;;;;;;5014472;28;1890;-70
2021/07/03 05:53:49;;;;;;;;;;;21.30;75.10;;;;;;5014129;28;1037;-71
2021/07/03 05:56:15;;;;;;;;;;;21.30;75.10;;;;;;5014160;28;1261;-70
2021/07/03 05:58:40;;;;;;;;;;;21.30;75.10;;;;;;5014182;28;1089;-70
2021/07/03 06:01:06;;;;;;;;;;;21.30;75.10;;;;;;5014284;28;1057;-70
2021/07/03 06:03:31;;;;;;;;;;;21.30;75.10;;;;;;5013890;28;1147;-70
2021/07/03 06:05:57;;;;;;;;;;;21.30;75.10;;;;;;5014070;28;1200;-68
2021/07/03 06:08:22;;;;;;;;;;;21.30;75.10;;;;;;5014252;28;1049;-68
2021/07/03 06:10:47;;;;;;;;;;;21.30;75.10;;;;;;5013939;28;1973;-68
2021/07/03 06:13:13;;;;;;;;;;;21.30;75.10;;;;;;5029527;23;2186;-64
2021/07/03 06:15:38;;;;;;;;;;;21.30;75.00;;;;;;5033148;28;1015;-69
2021/07/03 06:18:04;;;;;;;;;;;21.30;75.10;;;;;;5033849;28;1171;-69
2021/07/03 06:20:29;;;;;;;;;;;21.30;75.10;;;;;;5033495;28;1137;-68
2021/07/03 06:22:55;;;;;;;;;;;21.30;75.00;;;;;;5014387;28;1275;-68
2021/07/03 06:25:20;;;;;;;;;;;21.30;75.10;;;;;;5013659;28;1137;-68
2021/07/03 06:27:45;;;;;;;;;;;21.30;75.10;;;;;;5013944;28;1245;-67
2021/07/03 06:30:11;;;;;;;;;;;21.30;75.10;;;;;;5012646;28;1998;-67
2021/07/03 06:32:37;;;;;;;;;;;21.30;75.10;;;;;;5013743;28;1530;-67
2021/07/03 06:35:03;;;;;;;;;;;21.30;75.10;;;;;;4995472;28;1417;-68
2021/07/03 06:37:28;;;;;;;;;;;21.30;75.10;;;;;;5013765;28;1400;-68
2021/07/03 06:39:53;;;;;;;;;;;21.30;75.10;;;;;;5010879;28;1437;-66
2021/07/03 06:42:19;;;;;;;;;;;21.30;75.10;;;;;;5008645;28;1570;-67
2021/07/03 06:44:45;;;;;;;;;;;21.30;75.20;;;;;;5012893;28;1351;-65
2021/07/03 06:47:14;;;;;;;;;;;21.30;75.20;;;;;;5012961;28;2017;-65
2021/07/03 06:49:40;;;;;;;;;;;21.30;75.10;;;;;;4988712;28;1894;-66
2021/07/03 06:52:05;;;;;;;;;;;21.30;75.10;;;;;;4991692;28;1001;-66
2021/07/03 06:54:31;;;;;;;;;;;21.30;75.10;;;;;;5009172;28;1262;-66
2021/07/03 06:56:59;;;;;;;;;;;21.30;75.10;;;;;;5013232;28;1061;-68
2021/07/03 06:59:25;;;;;;;;;;;21.30;75.10;;;;;;5013432;28;1080;-68
2021/07/03 07:01:50;;;;;;;;;;;21.30;75.80;;;;;;5012690;28;1116;-68
2021/07/03 07:04:17;;;;;;;;;;;21.30;75.10;;;;;;4995323;28;1295;-69
2021/07/03 07:06:43;;;;;;;;;;;21.30;75.10;;;;;;4995789;28;1077;-68
2021/07/03 07:09:08;;;;;;;;;;;21.30;75.10;;;;;;5013039;28;1057;-68
2021/07/03 07:11:33;;;;;;;;;;;21.30;75.10;;;;;;5012858;28;1936;-68
2021/07/03 07:13:59;;;;;;;;;;;21.30;75.10;;;;;;5012361;28;1257;-68
2021/07/03 07:16:24;;;;;;;;;;;21.30;75.10;;;;;;5012297;28;1097;-69
2021/07/03 07:18:50;;;;;;;;;;;21.30;75.00;;;;;;5012278;28;1153;-69
2021/07/03 07:21:15;;;;;;;;;;;21.30;75.10;;;;;;5012239;28;1084;-68
2021/07/03 07:23:41;;;;;;;;;;;21.30;75.90;;;;;;4994352;28;1200;-69
2021/07/03 07:26:06;;;;;;;;;;;21.30;75.10;;;;;;4994426;28;1066;-68
2021/07/03 07:28:31;;;;;;;;;;;21.30;75.10;;;;;;5012155;28;1049;-69
2021/07/03 07:30:57;;;;;;;;;;;21.30;75.10;;;;;;5011998;28;1949;-69
2021/07/03 07:33:22;;;;;;;;;;;21.30;75.10;;;;;;5011785;28;1328;-68
2021/07/03 07:35:48;;;;;;;;;;;21.30;75.10;;;;;;5012019;28;1085;-68
2021/07/03 07:38:13;;;;;;;;;;;21.30;75.10;;;;;;5012028;28;1172;-68
2021/07/03 07:40:39;;;;;;;;;;;21.30;75.10;;;;;;5011590;28;1121;-68
2021/07/03 07:43:04;;;;;;;;;;;21.30;75.10;;;;;;5008839;28;1815;-66
2021/07/03 07:45:30;;;;;;;;;;;21.30;75.10;;;;;;5012050;28;1263;-68
2021/07/03 07:47:55;;;;;;;;;;;21.30;75.10;;;;;;4993339;28;1219;-68
2021/07/03 07:50:20;;;;;;;;;;;21.30;75.10;;;;;;5009823;28;2253;-68
2021/07/03 07:52:46;;;;;;;;;;;21.30;75.10;;;;;;5008746;28;1919;-68
2021/07/03 07:55:11;;;;;;;;;;;21.30;75.10;;;;;;5011310;28;1346;-68
2021/07/03 07:57:37;;;;;;;;;;;21.30;75.10;;;;;;4996043;28;1135;-67
2021/07/03 08:00:03;;;;;;;;;;;21.30;75.10;;;;;;5015211;28;1057;-68
2021/07/03 08:02:28;;;;;;;;;;;21.30;75.00;;;;;;5015139;28;1089;-68
2021/07/03 08:04:54;;;;;;;;;;;21.30;75.10;;;;;;5014942;28;1246;-68
2021/07/03 08:07:19;;;;;;;;;;;21.30;75.00;;;;;;5015079;28;1159;-67
2021/07/03 08:09:45;;;;;;;;;;;21.30;75.10;;;;;;5014790;28;1948;-67
2021/07/03 08:12:11;;;;;;;;;;;21.30;75.10;;;;;;5014906;28;1147;-68
2021/07/03 08:14:36;;;;;;;;;;;21.30;75.80;;;;;;4494454;28;15037109;-68
2021/07/03 08:17:02;;;;;;;;;;;21.30;75.10;;;;;;5016578;28;1066;-67
2021/07/03 08:19:27;;;;;;;;;;;21.30;75.00;;;;;;5016315;28;1652;-69
2021/07/03 08:21:57;;;;;;;;;;;21.30;75.00;;;;;;5016208;28;1613;-64
2021/07/03 08:24:23;;;;;;;;;;;21.30;75.00;;;;;;5007869;28;2051;-64
2021/07/03 08:26:48;;;;;;;;;;;21.30;75.00;;;;;;4992056;28;1694;-64
2021/07/03 08:29:13;;;;;;;;;;;21.30;75.00;;;;;;5015845;28;1399;-64
2021/07/03 08:31:39;;;;;;;;;;;21.30;75.00;;;;;;5012138;28;2033;-65
2021/07/03 08:34:04;;;;;;;;;;;21.30;75.10;;;;;;5015685;28;1386;-65
2021/07/03 08:36:30;;;;;;;;;;;21.30;75.00;;;;;;5015842;28;1191;-64
2021/07/03 08:38:55;;;;;;;;;;;21.30;75.00;;;;;;5015612;28;1089;-64
2021/07/03 08:41:21;;;;;;;;;;;21.30;75.00;;;;;;5015767;28;1183;-65
2021/07/03 08:43:47;;;;;;;;;;;21.30;75.00;;;;;;4997847;28;1352;-65
2021/07/03 08:46:12;;;;;;;;;;;21.30;75.00;;;;;;5015414;28;1184;-64
2021/07/03 08:48:38;;;;;;;;;;;21.30;75.00;;;;;;5015391;28;1132;-65
2021/07/03 08:51:03;;;;;;;;;;;21.30;75.00;;;;;;5014113;28;1910;-65
2021/07/03 08:53:28;;;;;;;;;;;21.30;75.00;;;;;;5014739;28;1185;-66
2021/07/03 08:55:54;;;;;;;;;;;21.30;75.00;;;;;;5015350;28;1211;-65
2021/07/03 08:58:19;;;;;;;;;;;21.30;75.00;;;;;;5015886;28;1223;-64
2021/07/03 09:00:46;;;;;;;;;;;21.30;75.00;;;;;;5015013;28;1359;-66
2021/07/03 09:03:13;;;;;;;;;;;21.30;75.00;;;;;;5015242;28;1363;-65
2021/07/03 09:05:38;;;;;;;;;;;21.30;75.00;;;;;;5015546;28;1483;-64
2021/07/03 09:08:05;;;;;;;;;;;21.30;75.00;;;;;;5014579;28;1362;-64
2021/07/03 09:10:30;;;;;;;;;;;21.30;75.10;;;;;;4997074;28;1898;-64
2021/07/03 09:12:59;;;;;;;;;;;21.30;75.00;;;;;;4997462;28;1386;-64
2021/07/03 09:15:24;;;;;;;;;;;21.30;75.00;;;;;;4997991;28;1715;-64
2021/07/03 09:17:58;;;;;;;;;;;21.30;75.00;;;;;;5015443;28;1362;-66
2021/07/03 09:20:35;;;;;;;;;;;21.30;75.10;;;;;;4997777;28;1643;-65
2021/07/03 09:23:05;;;;;;;;;;;21.30;75.00;;;;;;5014854;28;1472;-65
2021/07/03 09:25:30;;;;;;;;;;;21.30;75.00;;;;;;5015082;28;1420;-65
2021/07/03 09:27:56;;;;;;;;;;;21.30;75.00;;;;;;5015106;28;1463;-64
2021/07/03 09:30:22;;;;;;;;;;;21.30;75.00;;;;;;5014838;28;1977;-64
2021/07/03 09:32:49;;;;;;;;;;;21.30;74.90;;;;;;5014758;28;1376;-64
2021/07/03 09:35:14;;;;;;;;;;;21.30;74.70;;;;;;5014845;28;1408;-64
2021/07/03 09:37:40;;;;;;;;;;;21.40;74.20;;;;;;5014148;28;1589;-64
2021/07/03 09:40:06;;;;;;;;;;;21.40;73.80;;;;;;5014713;28;1419;-64
2021/07/03 09:42:35;;;;;;;;;;;21.40;73.50;;;;;;5014846;28;1359;-64
2021/07/03 09:45:00;;;;;;;;;;;21.40;73.30;;;;;;4997021;28;1206;-65
2021/07/03 09:47:27;;;;;;;;;;;21.40;73.30;;;;;;5014582;28;1411;-63
2021/07/03 09:50:01;;;;;;;;;;;21.40;73.40;;;;;;5014581;28;1973;-64
2021/07/03 09:52:27;;;;;;;;;;;21.40;73.00;;;;;;5014603;28;1568;-64
2021/07/03 09:54:52;;;;;;;;;;;21.40;72.50;;;;;;4980512;28;1394;-64
2021/07/03 09:57:17;;;;;;;;;;;21.40;72.90;;;;;;5014448;28;1509;-64
2021/07/03 09:59:43;;;;;;;;;;;21.40;73.00;;;;;;5014609;28;1608;-64
2021/07/03 10:02:08;;;;;;;;;;;21.40;72.60;;;;;;4996488;28;1507;-64
2021/07/03 10:04:35;;;;;;;;;;;21.40;72.50;;;;;;4987978;28;1200;-65
2021/07/03 10:07:04;;;;;;;;;;;21.40;72.10;;;;;;5009746;28;1620;-64
2021/07/03 10:09:37;;;;;;;;;;;21.40;71.70;;;;;;4996975;28;1182;-64
2021/07/03 10:12:09;;;;;;;;;;;21.40;71.40;;;;;;4983552;28;1899;-64
2021/07/03 10:14:38;;;;;;;;;;;21.40;71.90;;;;;;4996198;28;1659;-64
2021/07/03 10:17:03;;;;;;;;;;;21.40;72.10;;;;;;4996646;28;1452;-64
2021/07/03 10:19:30;;;;;;;;;;;21.40;72.20;;;;;;5013800;28;1380;-64
2021/07/03 10:21:58;;;;;;;;;;;21.40;71.70;;;;;;4979786;28;2547;-63
2021/07/03 10:24:26;;;;;;;;;;;21.40;71.10;;;;;;4986879;28;1201;-67
2021/07/03 10:26:52;;;;;;;;;;;21.40;71.30;;;;;;5013150;28;1089;-66
2021/07/03 10:29:21;;;;;;;;;;;21.40;71.30;;;;;;5013471;28;1129;-66
2021/07/03 10:31:47;;;;;;;;;;;21.40;71.10;;;;;;5013437;28;1961;-66
2021/07/03 10:34:13;;;;;;;;;;;21.40;71.40;;;;;;5013709;28;1274;-66
2021/07/03 10:36:38;;;;;;;;;;;21.50;72.00;;;;;;5013020;28;1034;-66
2021/07/03 10:39:04;;;;;;;;;;;21.50;70.70;;;;;;4995930;28;997;-66
2021/07/03 10:41:30;;;;;;;;;;;21.50;69.60;;;;;;4995539;28;1128;-66
2021/07/03 10:43:59;;;;;;;;;;;21.50;69.70;;;;;;5008446;28;2054;-65
2021/07/03 10:46:25;;;;;;;;;;;21.50;70.10;;;;;;4987370;28;1120;-69
2021/07/03 10:48:54;;;;;;;;;;;21.50;69.90;;;;;;5013962;28;1301;-69
2021/07/03 10:51:27;;;;;;;;;;;21.50;70.10;;;;;;5013893;28;1898;-69
2021/07/03 10:53:52;;;;;;;;;;;21.50;69.60;;;;;;4995715;28;1279;-69
2021/07/03 10:56:18;;;;;;;;;;;21.60;67.40;;;;;;5013223;28;1053;-69
2021/07/03 10:58:43;;;;;;;;;;;21.60;67.40;;;;;;5013411;28;1112;-69
2021/07/03 11:01:09;;;;;;;;;;;21.60;68.60;;;;;;5013293;28;1073;-69
2021/07/03 11:03:44;;;;;;;;;;;21.60;69.00;;;;;;5013150;28;1217;-69
2021/07/03 11:06:15;;;;;;;;;;;21.60;69.30;;;;;;5013328;28;1116;-69
2021/07/03 11:08:43;;;;;;;;;;;21.60;70.20;;;;;;5013257;28;1081;-69
2021/07/03 11:11:09;;;;;;;;;;;21.60;68.00;;;;;;5012925;28;1964;-69
2021/07/03 11:13:34;;;;;;;;;;;21.60;69.30;;;;;;5012787;28;1425;-69
2021/07/03 11:16:01;;;;;;;;;;;21.60;69.10;;;;;;5013204;28;1045;-69
2021/07/03 11:18:30;;;;;;;;;;;21.60;68.60;;;;;;5013090;28;1136;-69
2021/07/03 11:20:57;;;;;;;;;;;21.60;70.00;;;;;;5013206;28;1069;-69
2021/07/03 11:23:23;;;;;;;;;;;21.60;70.70;;;;;;4992278;28;1592;-68
2021/07/03 11:25:49;;;;;;;;;;;21.60;70.80;;;;;;5009675;28;2136;-66
2021/07/03 11:28:18;;;;;;;;;;;21.60;71.00;;;;;;5004698;28;1125;-68
2021/07/03 11:30:47;;;;;;;;;;;21.60;71.10;;;;;;5005127;28;1879;-68
2021/07/03 11:33:14;;;;;;;;;;;21.60;71.00;;;;;;5014307;28;1341;-68
2021/07/03 11:35:43;;;;;;;;;;;21.60;71.10;;;;;;5016176;28;1085;-68
2021/07/03 11:38:09;;;;;;;;;;;21.60;70.60;;;;;;4999383;28;1188;-66
2021/07/03 11:40:34;;;;;;;;;;;21.60;70.20;;;;;;5016918;28;1132;-68
2021/07/03 11:43:01;;;;;;;;;;;21.60;70.10;;;;;;5016932;28;1280;-68
2021/07/03 11:45:27;;;;;;;;;;;21.60;71.30;;;;;;4999244;28;915;-68
2021/07/03 11:47:53;;;;;;;;;;;21.50;71.00;;;;;;4999447;28;1113;-69
2021/07/03 11:50:21;;;;;;;;;;;21.50;70.80;;;;;;4999156;28;1965;-68
2021/07/03 11:52:48;;;;;;;;;;;21.50;71.40;;;;;;5016661;28;1089;-68
2021/07/03 11:55:13;;;;;;;;;;;21.50;71.60;;;;;;5016714;28;1225;-68
2021/07/03 11:57:43;;;;;;;;;;;21.50;71.70;;;;;;5016584;28;1041;-68
2021/07/03 12:00:10;;;;;;;;;;;21.50;71.40;;;;;;4999234;28;1077;-68
2021/07/03 12:02:36;;;;;;;;;;;21.50;71.60;;;;;;5016563;28;1049;-67
2021/07/03 12:05:01;;;;;;;;;;;21.50;71.30;;;;;;5016127;28;1188;-68
2021/07/03 12:07:27;;;;;;;;;;;21.50;71.10;;;;;;4998904;28;1129;-67
2021/07/03 12:09:59;;;;;;;;;;;21.50;71.30;;;;;;5016615;28;1902;-67
2021/07/03 12:12:25;;;;;;;;;;;21.60;71.60;;;;;;5003959;28;1144;-67
2021/07/03 12:14:58;;;;;;;;;;;21.60;71.40;;;;;;5027088;22;3804;-73
2021/07/03 12:17:23;;;;;;;;;;;21.60;71.40;;;;;;5007374;28;1180;-73
2021/07/03 12:19:48;;;;;;;;;;;21.60;71.70;;;;;;5014652;28;1104;-74
2021/07/03 12:22:14;;;;;;;;;;;21.60;71.60;;;;;;5014499;28;1088;-74
2021/07/03 12:24:39;;;;;;;;;;;21.60;71.70;;;;;;5015319;28;1272;-73
2021/07/03 12:27:05;;;;;;;;;;;21.60;71.70;;;;;;4994514;28;1221;-73
2021/07/03 12:29:32;;;;;;;;;;;21.60;71.30;;;;;;5009600;28;1065;-73
2021/07/03 12:32:05;;;;;;;;;;;21.60;71.40;;;;;;5012063;28;2177;-73
2021/07/03 12:34:34;;;;;;;;;;;21.60;71.40;;;;;;5013229;28;1314;-74
2021/07/03 12:36:59;;;;;;;;;;;21.60;71.00;;;;;;5014086;28;1206;-73
2021/07/03 12:39:24;;;;;;;;;;;21.60;71.30;;;;;;5014404;28;1157;-74
2021/07/03 12:42:03;;;;;;;;;;;21.60;71.30;;;;;;5012739;28;1206;-74
2021/07/03 12:44:32;;;;;;;;;;;21.60;71.20;;;;;;5013318;28;1269;-74
2021/07/03 12:46:58;;;;;;;;;;;21.60;71.20;;;;;;5014262;28;1089;-74
2021/07/03 12:49:30;;;;;;;;;;;21.60;71.00;;;;;;5014762;28;1108;-74
2021/07/03 12:51:55;;;;;;;;;;;21.60;70.90;;;;;;5013941;28;1966;-74
2021/07/03 12:54:24;;;;;;;;;;;21.60;69.30;;;;;;5013288;28;1537;-74
2021/07/03 12:56:52;;;;;;;;;;;21.60;69.40;;;;;;5013627;28;1172;-74
2021/07/03 12:59:17;;;;;;;;;;;21.60;70.20;;;;;;5014005;28;1208;-74
2021/07/03 13:01:43;;;;;;;;;;;21.70;70.40;;;;;;5015029;28;1120;-74
2021/07/03 13:04:08;;;;;;;;;;;21.60;70.80;;;;;;5013709;28;1287;-74
2021/07/03 13:06:34;;;;;;;;;;;21.70;71.10;;;;;;5013346;28;1073;-74
2021/07/03 13:08:59;;;;;;;;;;;21.60;67.90;;;;;;5014877;28;1229;-74
2021/07/03 13:11:28;;;;;;;;;;;21.70;67.60;;;;;;4997136;28;1957;-74
2021/07/03 13:13:56;;;;;;;;;;;21.70;68.70;;;;;;5013990;28;1284;-74
2021/07/03 13:16:22;;;;;;;;;;;21.70;69.60;;;;;;5013664;28;1084;-74
2021/07/03 13:18:47;;;;;;;;;;;21.70;70.40;;;;;;5012995;28;1110;-74
2021/07/03 13:21:13;;;;;;;;;;;21.70;70.00;;;;;;5013753;28;1069;-74
2021/07/03 13:23:38;;;;;;;;;;;21.70;70.50;;;;;;5013361;28;1296;-74
2021/07/03 13:26:05;;;;;;;;;;;21.70;70.70;;;;;;5013466;28;1232;-74
2021/07/03 13:28:31;;;;;;;;;;;21.70;70.80;;;;;;5012710;28;1224;-74
2021/07/03 13:30:56;;;;;;;;;;;21.70;70.80;;;;;;5013353;28;1919;-75
2021/07/03 13:33:21;;;;;;;;;;;21.70;71.10;;;;;;5013546;28;1253;-74
2021/07/03 13:35:47;;;;;;;;;;;21.70;71.20;;;;;;5014443;28;1100;-74
2021/07/03 13:38:12;;;;;;;;;;;21.70;71.20;;;;;;5014123;28;1251;-72
2021/07/03 13:40:38;;;;;;;;;;;21.70;71.40;;;;;;5014384;28;1171;-72
2021/07/03 13:43:04;;;;;;;;;;;21.70;70.70;;;;;;5013340;28;1256;-73
2021/07/03 13:45:29;;;;;;;;;;;21.70;71.00;;;;;;5013147;28;1133;-73
2021/07/03 13:47:55;;;;;;;;;;;21.70;71.20;;;;;;5013923;28;1057;-73
2021/07/03 13:50:20;;;;;;;;;;;21.70;71.40;;;;;;5013887;28;1955;-73
2021/07/03 13:52:45;;;;;;;;;;;21.70;71.40;;;;;;5014022;28;1152;-73
2021/07/03 13:55:11;;;;;;;;;;;21.70;68.90;;;;;;5012663;28;1210;-73
2021/07/03 13:57:37;;;;;;;;;;;21.70;65.80;;;;;;5013732;28;1147;-73
2021/07/03 14:00:05;;;;;;;;;;;21.70;66.50;;;;;;5014194;28;1036;-74
2021/07/03 14:02:31;;;;;;;;;;;21.80;65.10;;;;;;5014108;28;1214;-73
2021/07/03 14:04:56;;;;;;;;;;;21.80;62.00;;;;;;4992318;28;1347;-73
2021/07/03 14:07:22;;;;;;;;;;;21.90;64.40;;;;;;5011503;28;1113;-73
2021/07/03 14:09:47;;;;;;;;;;;21.90;66.00;;;;;;5013938;28;1057;-73
2021/07/03 14:12:13;;;;;;;;;;;21.80;69.80;;;;;;4999564;28;1906;-74
2021/07/03 14:14:38;;;;;;;;;;;21.90;68.10;;;;;;5012349;28;1202;-73
2021/07/03 14:17:03;;;;;;;;;;;21.90;68.60;;;;;;5013424;28;1108;-74
2021/07/03 14:19:29;;;;;;;;;;;21.90;68.10;;;;;;5012227;28;1029;-74
2021/07/03 14:21:55;;;;;;;;;;;21.90;67.80;;;;;;5012233;28;1069;-73
2021/07/03 14:24:20;;;;;;;;;;;21.90;68.10;;;;;;5013226;28;1316;-73